Weather History for Egegik, AK

Change the Weather History Date:

Saturday, December 8, 2012

  Actual Average (PAKN) Record (PAKN)
Temperature  
Mean Temperature 19 °F 20 °F  
Max Temperature 37 °F 27 °F 48 °F (1932)
Min Temperature 1 °F 12 °F -35 °F (1975)
Degree Days  
Heating Degree Days 46 46  
Month to date heating degree days 361  
Since 1 July heating degree days 3736  
Cooling Degree Days 0    
Month to date cooling degree days  
Year to date cooling degree days  
Moisture  
Dew Point 25 °F    
Average Humidity 89    
Maximum Humidity 100    
Minimum Humidity 79    
Precipitation  
Precipitation 0.00 in 0.04 in 0.51 in (1932)
Month to date precipitation 0.36  
Year to date precipitation 18.62  
Snow  
Snow 0.00 in 0.40 in 3.10 in (1994)
Month to date snowfall 2.9  
Since 1 July snowfall 12.7  
Snow Depth -    
Sea Level Pressure  
Sea Level Pressure 29.12 in    
Wind  
Wind Speed 17 mph (East)    
Max Wind Speed 39 mph    
Max Gust Speed 53 mph    
Visibility 9 miles    
Events      
T = Trace of Precipitation, MM = Missing Value Source: NWS Daily Summary

Daily Weather History Graph

Daily Weather History Graph

Search for Another Location

Airport:

Trip Planner

Search our weather history database for the weather conditions in past years. The results will help you decide how hot, cold, wet, or windy it might be!

Date:

Astronomy

Dec. 08, 2012 Rise Set
Actual Time 10:03 AM AKST 4:40 PM AKST
Civil Twilight 9:12 AM AKST 5:31 PM AKST
Nautical Twilight 8:19 AM AKST 6:23 PM AKST
Astronomical Twilight 7:31 AM AKST 7:12 PM AKST
Moon 3:42 AM AKST (12/8) 2:09 PM AKST (12/8)
Length of Visible Light 8h 19m
Length of Day
6h 36m
Waning Crescent, 27% of the Moon is Illuminated
Dec 8
Waning Crescent
Dec 12
New
Dec 19
First Quarter
Dec 28
Full
Jan 4
Last Quarter

Hourly Weather History & Observations

Time (AKST) Temp. Windchill Dew Point Humidity Pressure Visibility Wind Dir Wind Speed Gust Speed Precip Events Conditions
12:16 AM 1.4 °F -16.9 °F -2.2 °F 85% 29.64 in 10.0 mi NE 13.8 mph 17.3 mph N/A   Mostly Cloudy
12:36 AM 1.4 °F -15.3 °F -2.2 °F 85% 29.64 in 10.0 mi NE 11.5 mph 19.6 mph N/A   Mostly Cloudy
12:56 AM 1.4 °F -15.3 °F -2.2 °F 85% 29.61 in 10.0 mi NE 11.5 mph 18.4 mph N/A   Scattered Clouds
1:16 AM 1.4 °F -16.9 °F -2.2 °F 85% 29.59 in 10.0 mi NE 13.8 mph 18.4 mph N/A   Clear
1:36 AM 3.2 °F -15.3 °F -0.4 °F 85% 29.58 in 10.0 mi NE 15.0 mph - N/A   Clear
1:56 AM 3.2 °F -14.6 °F -0.4 °F 85% 29.56 in 10.0 mi NE 13.8 mph - N/A   Scattered Clouds
2:16 AM 3.2 °F -13.9 °F 1.4 °F 92% 29.55 in 10.0 mi NE 12.7 mph - N/A   Scattered Clouds
2:36 AM 5.0 °F -12.3 °F 1.4 °F 85% 29.53 in 10.0 mi NE 13.8 mph - N/A   Mostly Cloudy
3:16 AM 6.8 °F -10.0 °F 3.2 °F 85% 29.49 in 10.0 mi NE 13.8 mph - N/A   Overcast
3:36 AM 8.6 °F -7.7 °F 5.0 °F 85% 29.47 in 10.0 mi NE 13.8 mph 19.6 mph N/A   Overcast
3:56 AM 10.4 °F -6.0 °F 6.8 °F 85% 29.45 in 10.0 mi NE 15.0 mph - N/A   Overcast
4:16 AM 10.4 °F -4.8 °F 6.8 °F 85% 29.43 in 10.0 mi ENE 12.7 mph - N/A   Overcast
4:36 AM 12.2 °F -2.5 °F 8.6 °F 85% 29.42 in 10.0 mi ENE 12.7 mph - N/A   Overcast
4:56 AM 12.2 °F -1.8 °F 8.6 °F 85% 29.40 in 10.0 mi NE 11.5 mph - N/A   Overcast
5:16 AM 14.0 °F 0.5 °F 10.4 °F 86% 29.38 in 10.0 mi ENE 11.5 mph 17.3 mph N/A   Overcast
5:36 AM 15.8 °F 2.1 °F 12.2 °F 86% 29.35 in 10.0 mi NE 12.7 mph - N/A   Overcast
5:56 AM 17.6 °F 5.7 °F 12.2 °F 79% 29.33 in 10.0 mi NE 10.4 mph - N/A   Overcast
6:16 AM 17.6 °F 5.7 °F 15.8 °F 93% 29.32 in 8.0 mi NE 10.4 mph - N/A   Overcast
6:56 AM 21.2 °F 10.1 °F 17.6 °F 86% 29.26 in 7.0 mi NE 10.4 mph - N/A   Overcast
7:16 AM 23.0 °F 11.7 °F 19.4 °F 86% 29.23 in 10.0 mi NNE 11.5 mph - N/A   Overcast
7:36 AM 23.0 °F 12.4 °F 19.4 °F 86% 29.21 in 9.0 mi NNE 10.4 mph - N/A   Overcast
7:56 AM 24.8 °F 13.4 °F 21.2 °F 86% 29.19 in 5.0 mi NE 12.7 mph - N/A   Overcast
8:16 AM 26.6 °F 15.7 °F 23.0 °F 86% 29.17 in 4.0 mi NE 12.7 mph - N/A   Overcast
8:36 AM 28.4 °F 18.5 °F 26.6 °F 93% 29.15 in 4.0 mi NE 11.5 mph - N/A   Overcast
8:56 AM 28.4 °F 18.0 °F 26.6 °F 93% 29.13 in 5.0 mi NE 12.7 mph - N/A   Overcast
9:16 AM 30.2 °F 19.8 °F 28.4 °F 93% 29.10 in 5.0 mi ENE 13.8 mph - N/A   Overcast
9:36 AM 33.8 °F 24.8 °F 32.0 °F 93% 29.08 in 5.0 mi ENE 12.7 mph - N/A   Overcast
9:56 AM 33.8 °F 24.3 °F 32.0 °F 93% 29.05 in 8.0 mi ENE 13.8 mph 19.6 mph N/A   Overcast
10:16 AM 33.8 °F 24.3 °F 30.2 °F 87% 29.02 in 5.0 mi ENE 13.8 mph - N/A   Overcast
10:36 AM 33.8 °F 23.5 °F 32.0 °F 93% 29.01 in 6.0 mi ENE 16.1 mph - N/A   Overcast
10:56 AM 33.8 °F 25.8 °F 33.8 °F 100% 29.03 in 6.0 mi East 10.4 mph - N/A   Overcast
11:16 AM 33.8 °F 27.0 °F 32.0 °F 93% 29.03 in 10.0 mi ESE 8.1 mph - N/A   Overcast
11:36 AM 33.8 °F 23.5 °F 33.8 °F 100% 29.01 in 10.0 mi East 16.1 mph 25.3 mph N/A   Overcast
11:56 AM 35.6 °F 23.4 °F 33.8 °F 93% 28.98 in 10.0 mi ESE 25.3 mph 36.8 mph N/A   Overcast
12:16 PM 35.6 °F 22.3 °F 33.8 °F 93% 28.97 in 10.0 mi ESE 31.1 mph 39.1 mph N/A   Overcast
12:36 PM 37.4 °F 24.2 °F 33.8 °F 87% 28.95 in 10.0 mi ESE 34.5 mph 52.9 mph N/A   Overcast
12:56 PM 37.4 °F 23.6 °F 33.8 °F 87% 28.93 in 10.0 mi ESE 38.0 mph 47.2 mph N/A   Overcast
1:16 PM 37.4 °F 24.6 °F 32.0 °F 81% 28.95 in 10.0 mi ESE 32.2 mph 48.3 mph N/A   Overcast
1:36 PM 37.4 °F 23.5 °F 32.0 °F 81% 28.93 in 10.0 mi ESE 39.1 mph 48.3 mph N/A   Overcast
1:56 PM 37.4 °F 24.0 °F 33.8 °F 87% 28.92 in 10.0 mi ESE 35.7 mph 47.2 mph N/A   Overcast
2:16 PM 37.4 °F 24.0 °F 33.8 °F 87% 28.93 in 10.0 mi ESE 35.7 mph 47.2 mph N/A   Overcast
2:36 PM 37.4 °F 24.2 °F 32.0 °F 81% 28.95 in 10.0 mi ESE 34.5 mph 44.9 mph N/A   Overcast
2:56 PM 37.4 °F 24.2 °F 32.0 °F 81% 28.95 in 10.0 mi ESE 34.5 mph 42.6 mph N/A   Overcast
3:16 PM 35.6 °F 22.5 °F 32.0 °F 87% 28.96 in 10.0 mi ESE 29.9 mph 43.7 mph N/A   Overcast
3:36 PM 35.6 °F 22.3 °F 33.8 °F 93% 28.95 in 10.0 mi ESE 31.1 mph 40.3 mph N/A   Overcast
3:56 PM 35.6 °F 22.3 °F 33.8 °F 93% 28.95 in 10.0 mi SE 31.1 mph 39.1 mph N/A   Overcast
4:16 PM 35.6 °F 22.3 °F 33.8 °F 93% 28.96 in 10.0 mi SE 31.1 mph 40.3 mph N/A   Overcast
4:36 PM 35.6 °F 22.5 °F 32.0 °F 87% 28.95 in 10.0 mi SE 29.9 mph 36.8 mph N/A   Overcast
4:56 PM 35.6 °F 21.9 °F 32.0 °F 87% 28.95 in 10.0 mi SE 33.4 mph 38.0 mph N/A   Partly Cloudy
5:16 PM 35.6 °F 22.5 °F 32.0 °F 87% 28.95 in 10.0 mi SE 29.9 mph 38.0 mph N/A   Clear
5:36 PM 35.6 °F 23.4 °F 32.0 °F 87% 28.95 in 10.0 mi ESE 25.3 mph 31.1 mph N/A   Clear
5:56 PM 35.6 °F 23.7 °F 32.0 °F 87% 28.95 in 10.0 mi SE 24.2 mph 29.9 mph N/A   Clear
6:16 PM 35.6 °F 23.2 °F 33.8 °F 93% 28.95 in 10.0 mi ESE 26.5 mph 35.7 mph N/A   Scattered Clouds
6:36 PM 35.6 °F 24.2 °F 33.8 °F 93% 28.95 in 10.0 mi ESE 21.9 mph 32.2 mph N/A   Mostly Cloudy
6:56 PM 35.6 °F 23.4 °F 32.0 °F 87% 28.95 in 10.0 mi ESE 25.3 mph 35.7 mph N/A   Mostly Cloudy
7:16 PM 35.6 °F 23.0 °F 32.0 °F 87% 28.94 in 10.0 mi ESE 27.6 mph 32.2 mph N/A   Overcast
7:36 PM 35.6 °F 23.4 °F 32.0 °F 87% 28.95 in 10.0 mi ESE 25.3 mph 31.1 mph N/A   Mostly Cloudy
7:56 PM 35.6 °F 24.0 °F 33.8 °F 93% 28.95 in 10.0 mi ESE 23.0 mph 29.9 mph N/A   Overcast
8:16 PM 35.6 °F 24.2 °F 33.8 °F 93% 28.94 in 10.0 mi ESE 21.9 mph 29.9 mph N/A   Overcast
8:36 PM 35.6 °F 24.8 °F 33.8 °F 93% 28.94 in 10.0 mi ESE 19.6 mph 27.6 mph N/A   Overcast
8:56 PM 35.6 °F 25.2 °F 33.8 °F 93% 28.95 in 10.0 mi ESE 18.4 mph 23.0 mph N/A   Overcast
9:16 PM 35.6 °F 25.9 °F 32.0 °F 87% 28.95 in 10.0 mi ESE 16.1 mph - N/A   Overcast
9:36 PM 35.6 °F 26.6 °F 33.8 °F 93% 28.95 in 10.0 mi ESE 13.8 mph - N/A   Overcast
9:56 PM 35.6 °F 26.6 °F 33.8 °F 93% 28.95 in 10.0 mi ESE 13.8 mph - N/A   Overcast
10:16 PM 35.6 °F 26.2 °F 33.8 °F 93% 28.95 in 10.0 mi ESE 15.0 mph - N/A   Overcast
10:36 PM 35.6 °F 26.6 °F 33.8 °F 93% 28.95 in 10.0 mi ESE 13.8 mph - N/A   Overcast
10:56 PM 35.6 °F 26.2 °F 33.8 °F 93% 28.95 in 10.0 mi SE 15.0 mph - N/A   Overcast
11:16 PM 35.6 °F 25.5 °F 33.8 °F 93% 28.95 in 10.0 mi SE 17.3 mph - N/A   Overcast
11:36 PM 35.6 °F 26.2 °F 33.8 °F 93% 28.95 in 10.0 mi SE 15.0 mph - N/A   Mostly Cloudy
11:56 PM 35.6 °F 26.2 °F 33.8 °F 93% 28.95 in 10.0 mi SE 15.0 mph - N/A   Partly Cloudy